sensor_id;sensor_type;location;lat;lon;timestamp;pressure;altitude;pressure_sealevel;temperature;humidity
35655;BME280;21773;50.010;19.972;2023-02-19T00:01:14;98468.59;;;12.61;62.98
35655;BME280;21773;50.010;19.972;2023-02-19T00:04:20;98481.03;;;12.62;63.05
35655;BME280;21773;50.010;19.972;2023-02-19T00:07:24;98467.78;;;12.60;62.79
35655;BME280;21773;50.010;19.972;2023-02-19T00:10:30;98451.53;;;12.43;63.37
35655;BME280;21773;50.010;19.972;2023-02-19T00:13:34;98459.97;;;12.47;62.96
35655;BME280;21773;50.010;19.972;2023-02-19T00:16:38;98451.53;;;12.43;62.93
35655;BME280;21773;50.010;19.972;2023-02-19T00:19:41;98453.00;;;12.34;63.12
35655;BME280;21773;50.010;19.972;2023-02-19T00:22:45;98449.44;;;12.17;63.67
35655;BME280;21773;50.010;19.972;2023-02-19T00:25:49;98458.22;;;12.24;63.72
35655;BME280;21773;50.010;19.972;2023-02-19T00:28:55;98447.22;;;12.14;63.83
35655;BME280;21773;50.010;19.972;2023-02-19T00:31:58;98462.06;;;12.28;63.70
35655;BME280;21773;50.010;19.972;2023-02-19T00:35:02;98460.09;;;12.24;63.92
35655;BME280;21773;50.010;19.972;2023-02-19T00:38:06;98460.22;;;12.17;64.08
35655;BME280;21773;50.010;19.972;2023-02-19T00:41:12;98433.84;;;12.07;64.12
35655;BME280;21773;50.010;19.972;2023-02-19T00:44:22;98442.31;;;12.28;64.25
35655;BME280;21773;50.010;19.972;2023-02-19T00:47:25;98450.69;;;12.26;64.07
35655;BME280;21773;50.010;19.972;2023-02-19T00:50:29;98431.44;;;12.23;64.31
35655;BME280;21773;50.010;19.972;2023-02-19T00:53:32;98436.00;;;12.22;64.30
35655;BME280;21773;50.010;19.972;2023-02-19T00:56:37;98442.81;;;12.25;64.00
35655;BME280;21773;50.010;19.972;2023-02-19T00:59:40;98395.47;;;12.05;64.00
35655;BME280;21773;50.010;19.972;2023-02-19T01:02:43;98432.25;;;12.23;64.31
35655;BME280;21773;50.010;19.972;2023-02-19T01:05:47;98430.88;;;12.21;64.58
35655;BME280;21773;50.010;19.972;2023-02-19T01:08:50;98429.34;;;12.13;65.23
35655;BME280;21773;50.010;19.972;2023-02-19T01:11:55;98417.81;;;12.01;65.60
35655;BME280;21773;50.010;19.972;2023-02-19T01:14:59;98417.31;;;12.04;65.22
35655;BME280;21773;50.010;19.972;2023-02-19T01:18:02;98426.72;;;12.01;65.33
35655;BME280;21773;50.010;19.972;2023-02-19T01:21:07;98403.22;;;11.73;65.59
35655;BME280;21773;50.010;19.972;2023-02-19T01:24:11;98410.34;;;11.91;65.61
35655;BME280;21773;50.010;19.972;2023-02-19T01:27:16;98403.09;;;11.80;65.04
35655;BME280;21773;50.010;19.972;2023-02-19T01:30:19;98404.09;;;11.91;64.95
35655;BME280;21773;50.010;19.972;2023-02-19T01:33:23;98412.69;;;11.88;64.83
35655;BME280;21773;50.010;19.972;2023-02-19T01:36:26;98412.13;;;11.86;64.72
35655;BME280;21773;50.010;19.972;2023-02-19T01:39:30;98411.53;;;11.84;64.81
35655;BME280;21773;50.010;19.972;2023-02-19T01:42:35;98405.19;;;11.78;65.03
35655;BME280;21773;50.010;19.972;2023-02-19T01:45:42;98408.03;;;11.71;65.60
35655;BME280;21773;50.010;19.972;2023-02-19T01:48:45;98406.53;;;11.76;65.76
35655;BME280;21773;50.010;19.972;2023-02-19T01:51:53;98412.75;;;11.76;66.05
35655;BME280;21773;50.010;19.972;2023-02-19T01:55:01;98401.13;;;11.76;66.34
35655;BME280;21773;50.010;19.972;2023-02-19T01:58:08;98394.16;;;11.68;66.98
35655;BME280;21773;50.010;19.972;2023-02-19T02:01:13;98361.25;;;11.54;66.95
35655;BME280;21773;50.010;19.972;2023-02-19T02:04:17;98400.88;;;11.77;66.82
35655;BME280;21773;50.010;19.972;2023-02-19T02:07:22;98394.53;;;11.71;67.18
35655;BME280;21773;50.010;19.972;2023-02-19T02:10:43;98391.00;;;11.71;67.15
35655;BME280;21773;50.010;19.972;2023-02-19T02:13:48;98390.19;;;11.70;67.17
35655;BME280;21773;50.010;19.972;2023-02-19T02:16:56;98399.09;;;11.71;66.86
35655;BME280;21773;50.010;19.972;2023-02-19T02:20:18;98390.81;;;11.61;66.81
35655;BME280;21773;50.010;19.972;2023-02-19T02:23:38;98400.16;;;11.70;66.72
35655;BME280;21773;50.010;19.972;2023-02-19T02:26:55;98400.53;;;11.73;66.91
35655;BME280;21773;50.010;19.972;2023-02-19T02:33:41;98409.72;;;11.73;67.02
35655;BME280;21773;50.010;19.972;2023-02-19T02:36:49;98408.25;;;11.70;67.44
35655;BME280;21773;50.010;19.972;2023-02-19T02:39:56;98397.00;;;11.73;67.32
35655;BME280;21773;50.010;19.972;2023-02-19T02:43:00;98402.63;;;11.71;67.63
35655;BME280;21773;50.010;19.972;2023-02-19T02:46:08;98394.75;;;11.70;67.62
35655;BME280;21773;50.010;19.972;2023-02-19T02:49:17;98397.00;;;11.73;67.54
35655;BME280;21773;50.010;19.972;2023-02-19T02:52:22;98382.81;;;11.78;67.50
35655;BME280;21773;50.010;19.972;2023-02-19T02:55:42;98391.84;;;11.71;67.51
35655;BME280;21773;50.010;19.972;2023-02-19T02:58:47;98397.00;;;11.73;66.95
35655;BME280;21773;50.010;19.972;2023-02-19T03:01:56;98377.31;;;11.61;67.25
35655;BME280;21773;50.010;19.972;2023-02-19T03:05:16;98385.28;;;11.67;67.70
35655;BME280;21773;50.010;19.972;2023-02-19T03:08:41;98375.91;;;11.58;67.97
35655;BME280;21773;50.010;19.972;2023-02-19T03:11:48;98367.78;;;11.58;69.10
35655;BME280;21773;50.010;19.972;2023-02-19T03:15:13;98375.53;;;11.66;69.19
35655;BME280;21773;50.010;19.972;2023-02-19T03:18:40;98378.91;;;11.73;69.00
35655;BME280;21773;50.010;19.972;2023-02-19T03:22:07;98369.84;;;11.80;68.69
35655;BME280;21773;50.010;19.972;2023-02-19T03:25:15;98374.09;;;11.76;68.51
35655;BME280;21773;50.010;19.972;2023-02-19T03:28:39;98367.38;;;11.78;68.51
35655;BME280;21773;50.010;19.972;2023-02-19T03:32:23;98369.72;;;11.86;68.16
35655;BME280;21773;50.010;19.972;2023-02-19T03:35:34;98365.59;;;11.84;68.24
35655;BME280;21773;50.010;19.972;2023-02-19T03:38:48;98352.19;;;11.89;68.03
35655;BME280;21773;50.010;19.972;2023-02-19T03:42:00;98351.72;;;11.92;67.80
35655;BME280;21773;50.010;19.972;2023-02-19T03:48:43;98346.78;;;11.89;68.35
35655;BME280;21773;50.010;19.972;2023-02-19T03:51:53;98353.03;;;11.89;68.71
35655;BME280;21773;50.010;19.972;2023-02-19T03:55:02;98351.13;;;11.90;68.38
35655;BME280;21773;50.010;19.972;2023-02-19T03:58:13;98347.72;;;11.94;68.16
35655;BME280;21773;50.010;19.972;2023-02-19T04:01:26;98339.84;;;11.93;68.10
35655;BME280;21773;50.010;19.972;2023-02-19T04:04:35;98345.41;;;12.03;67.97
35655;BME280;21773;50.010;19.972;2023-02-19T04:07:46;98341.97;;;12.07;67.77
35655;BME280;21773;50.010;19.972;2023-02-19T04:10:57;98339.78;;;12.04;67.98
35655;BME280;21773;50.010;19.972;2023-02-19T04:14:09;98342.41;;;11.99;68.16
35655;BME280;21773;50.010;19.972;2023-02-19T04:17:19;98324.94;;;11.90;68.29
35655;BME280;21773;50.010;19.972;2023-02-19T04:20:27;98334.28;;;11.99;68.38
35655;BME280;21773;50.010;19.972;2023-02-19T04:23:37;98327.59;;;12.02;68.29
35655;BME280;21773;50.010;19.972;2023-02-19T04:26:44;98309.56;;;11.91;68.33
35655;BME280;21773;50.010;19.972;2023-02-19T04:29:47;98320.47;;;11.96;68.60
35655;BME280;21773;50.010;19.972;2023-02-19T04:32:50;98312.81;;;11.93;68.55
35655;BME280;21773;50.010;19.972;2023-02-19T04:35:54;98299.91;;;11.95;68.77
35655;BME280;21773;50.010;19.972;2023-02-19T04:38:59;98296.38;;;11.94;68.79
35655;BME280;21773;50.010;19.972;2023-02-19T04:42:03;98285.06;;;11.97;68.41
35655;BME280;21773;50.010;19.972;2023-02-19T04:45:07;98292.63;;;11.95;68.53
35655;BME280;21773;50.010;19.972;2023-02-19T04:48:10;98291.81;;;11.95;68.50
35655;BME280;21773;50.010;19.972;2023-02-19T04:51:14;98293.13;;;11.92;68.54
35655;BME280;21773;50.010;19.972;2023-02-19T04:54:19;98294.50;;;11.95;68.51
35655;BME280;21773;50.010;19.972;2023-02-19T04:57:22;98296.97;;;11.96;68.48
35655;BME280;21773;50.010;19.972;2023-02-19T05:00:25;98309.47;;;12.02;68.52
35655;BME280;21773;50.010;19.972;2023-02-19T05:03:29;98303.75;;;11.99;68.25
35655;BME280;21773;50.010;19.972;2023-02-19T05:06:33;98302.59;;;11.95;68.36
35655;BME280;21773;50.010;19.972;2023-02-19T05:09:38;98297.28;;;12.00;68.07
35655;BME280;21773;50.010;19.972;2023-02-19T05:12:41;98294.44;;;12.06;67.90
35655;BME280;21773;50.010;19.972;2023-02-19T05:15:53;98290.47;;;11.97;67.97
35655;BME280;21773;50.010;19.972;2023-02-19T05:18:58;98281.97;;;11.89;68.02
35655;BME280;21773;50.010;19.972;2023-02-19T05:22:01;98231.94;;;11.69;67.85
35655;BME280;21773;50.010;19.972;2023-02-19T05:25:06;98285.66;;;11.99;67.47
35655;BME280;21773;50.010;19.972;2023-02-19T05:28:09;98278.16;;;12.01;67.48
35655;BME280;21773;50.010;19.972;2023-02-19T05:31:22;98270.44;;;11.93;67.30
35655;BME280;21773;50.010;19.972;2023-02-19T05:34:25;98263.97;;;11.94;67.49
35655;BME280;21773;50.010;19.972;2023-02-19T05:37:29;98262.91;;;11.95;67.53
35655;BME280;21773;50.010;19.972;2023-02-19T05:40:34;98234.09;;;11.84;67.23
35655;BME280;21773;50.010;19.972;2023-02-19T05:43:37;98255.38;;;11.97;67.02
35655;BME280;21773;50.010;19.972;2023-02-19T05:46:41;98248.34;;;11.96;67.12
35655;BME280;21773;50.010;19.972;2023-02-19T05:49:44;98230.25;;;11.97;66.83
35655;BME280;21773;50.010;19.972;2023-02-19T05:52:48;98235.81;;;11.90;67.36
35655;BME280;21773;50.010;19.972;2023-02-19T05:55:52;98227.47;;;11.92;67.00
35655;BME280;21773;50.010;19.972;2023-02-19T05:58:56;98226.00;;;11.84;67.23
35655;BME280;21773;50.010;19.972;2023-02-19T06:02:00;98237.09;;;11.88;67.28
35655;BME280;21773;50.010;19.972;2023-02-19T06:05:04;98245.47;;;11.86;67.46
35655;BME280;21773;50.010;19.972;2023-02-19T06:08:08;98242.88;;;11.91;67.55
35655;BME280;21773;50.010;19.972;2023-02-19T06:11:13;98243.91;;;11.90;67.60
35655;BME280;21773;50.010;19.972;2023-02-19T06:14:16;98240.41;;;11.90;67.75
35655;BME280;21773;50.010;19.972;2023-02-19T06:17:19;98229.81;;;11.88;67.99
35655;BME280;21773;50.010;19.972;2023-02-19T06:20:23;98222.00;;;11.87;67.95
35655;BME280;21773;50.010;19.972;2023-02-19T06:23:27;98223.44;;;11.94;68.04
35655;BME280;21773;50.010;19.972;2023-02-19T06:26:32;98218.94;;;12.00;67.86
35655;BME280;21773;50.010;19.972;2023-02-19T06:29:35;98207.81;;;11.96;68.08
35655;BME280;21773;50.010;19.972;2023-02-19T06:32:39;98216.47;;;11.98;68.23
35655;BME280;21773;50.010;19.972;2023-02-19T06:35:42;98207.47;;;11.93;68.50
35655;BME280;21773;50.010;19.972;2023-02-19T06:38:46;98183.59;;;11.85;68.27
35655;BME280;21773;50.010;19.972;2023-02-19T06:41:54;98212.56;;;12.06;68.09
35655;BME280;21773;50.010;19.972;2023-02-19T06:44:57;98226.63;;;12.08;68.27
35655;BME280;21773;50.010;19.972;2023-02-19T06:48:00;98219.03;;;12.05;68.50
35655;BME280;21773;50.010;19.972;2023-02-19T06:51:04;98229.09;;;12.09;68.39
35655;BME280;21773;50.010;19.972;2023-02-19T06:54:08;98228.59;;;12.12;68.31
35655;BME280;21773;50.010;19.972;2023-02-19T06:57:12;98225.66;;;12.14;68.09
35655;BME280;21773;50.010;19.972;2023-02-19T07:00:16;98225.47;;;12.21;67.84
35655;BME280;21773;50.010;19.972;2023-02-19T07:03:20;98234.63;;;12.36;67.61
35655;BME280;21773;50.010;19.972;2023-02-19T07:06:25;98230.09;;;12.42;67.55
35655;BME280;21773;50.010;19.972;2023-02-19T07:09:28;98229.59;;;12.45;67.38
35655;BME280;21773;50.010;19.972;2023-02-19T07:12:33;98222.31;;;12.45;67.38
35655;BME280;21773;50.010;19.972;2023-02-19T07:15:37;98225.91;;;12.51;67.16
35655;BME280;21773;50.010;19.972;2023-02-19T07:18:40;98224.91;;;12.57;67.06
35655;BME280;21773;50.010;19.972;2023-02-19T07:21:43;98220.63;;;12.61;66.66
35655;BME280;21773;50.010;19.972;2023-02-19T07:24:46;98215.28;;;12.66;66.48
35655;BME280;21773;50.010;19.972;2023-02-19T07:27:51;98208.50;;;12.64;66.60
35655;BME280;21773;50.010;19.972;2023-02-19T07:30:59;98217.19;;;12.66;66.34
35655;BME280;21773;50.010;19.972;2023-02-19T07:34:02;98206.03;;;12.62;66.43
35655;BME280;21773;50.010;19.972;2023-02-19T07:37:06;98210.38;;;12.63;66.64
35655;BME280;21773;50.010;19.972;2023-02-19T07:40:09;98212.84;;;12.65;66.50
35655;BME280;21773;50.010;19.972;2023-02-19T07:43:14;98210.19;;;12.48;66.88
35655;BME280;21773;50.010;19.972;2023-02-19T07:46:18;98207.22;;;12.49;67.08
35655;BME280;21773;50.010;19.972;2023-02-19T07:49:21;98194.88;;;12.37;66.94
35655;BME280;21773;50.010;19.972;2023-02-19T07:52:24;98202.06;;;12.48;66.51
35655;BME280;21773;50.010;19.972;2023-02-19T07:55:30;98201.13;;;12.59;66.34
35655;BME280;21773;50.010;19.972;2023-02-19T07:58:35;98207.72;;;12.68;66.14
35655;BME280;21773;50.010;19.972;2023-02-19T08:01:38;98195.97;;;12.79;66.00
35655;BME280;21773;50.010;19.972;2023-02-19T08:04:59;98203.75;;;12.97;65.90
35655;BME280;21773;50.010;19.972;2023-02-19T08:08:04;98207.78;;;13.17;65.11
35655;BME280;21773;50.010;19.972;2023-02-19T08:11:08;98194.00;;;13.18;64.73
35655;BME280;21773;50.010;19.972;2023-02-19T08:14:30;98195.44;;;13.26;64.45
35655;BME280;21773;50.010;19.972;2023-02-19T08:17:33;98189.13;;;13.20;64.49
35655;BME280;21773;50.010;19.972;2023-02-19T08:20:38;98181.78;;;13.16;64.76
35655;BME280;21773;50.010;19.972;2023-02-19T08:23:41;98184.00;;;13.19;64.85
35655;BME280;21773;50.010;19.972;2023-02-19T08:26:45;98184.59;;;13.26;64.85
35655;BME280;21773;50.010;19.972;2023-02-19T08:29:50;98180.81;;;13.27;64.52
35655;BME280;21773;50.010;19.972;2023-02-19T08:32:53;98193.53;;;13.26;64.24
35655;BME280;21773;50.010;19.972;2023-02-19T08:36:00;98187.44;;;13.41;64.32
35655;BME280;21773;50.010;19.972;2023-02-19T08:39:05;98184.69;;;13.36;64.36
35655;BME280;21773;50.010;19.972;2023-02-19T08:42:09;98187.16;;;13.37;64.45
35655;BME280;21773;50.010;19.972;2023-02-19T08:45:14;98194.97;;;13.34;64.89
35655;BME280;21773;50.010;19.972;2023-02-19T08:48:17;98193.13;;;13.39;64.67
35655;BME280;21773;50.010;19.972;2023-02-19T08:51:20;98186.19;;;13.49;64.86
35655;BME280;21773;50.010;19.972;2023-02-19T08:54:24;98190.81;;;13.53;64.89
35655;BME280;21773;50.010;19.972;2023-02-19T08:57:27;98183.44;;;13.43;65.04
35655;BME280;21773;50.010;19.972;2023-02-19T09:00:32;98191.91;;;13.52;64.88
35655;BME280;21773;50.010;19.972;2023-02-19T09:03:35;98181.31;;;13.51;65.07
35655;BME280;21773;50.010;19.972;2023-02-19T09:06:39;98168.59;;;13.51;64.98
35655;BME280;21773;50.010;19.972;2023-02-19T09:09:42;98174.31;;;13.55;64.93
35655;BME280;21773;50.010;19.972;2023-02-19T09:12:46;98171.38;;;13.61;64.71
35655;BME280;21773;50.010;19.972;2023-02-19T09:15:50;98141.59;;;13.29;64.57
35655;BME280;21773;50.010;19.972;2023-02-19T09:18:54;98191.03;;;13.47;64.39
35655;BME280;21773;50.010;19.972;2023-02-19T09:21:57;98184.16;;;13.39;64.42
35655;BME280;21773;50.010;19.972;2023-02-19T09:25:01;98167.63;;;13.35;65.04
35655;BME280;21773;50.010;19.972;2023-02-19T09:28:04;98179.84;;;13.38;64.98
35655;BME280;21773;50.010;19.972;2023-02-19T09:31:10;98169.63;;;13.45;65.14
35655;BME280;21773;50.010;19.972;2023-02-19T09:34:15;98181.03;;;13.47;64.95
35655;BME280;21773;50.010;19.972;2023-02-19T09:37:18;98195.91;;;13.50;64.69
35655;BME280;21773;50.010;19.972;2023-02-19T09:40:21;98188.03;;;13.43;64.08
35655;BME280;21773;50.010;19.972;2023-02-19T09:43:27;98193.00;;;13.29;64.09
35655;BME280;21773;50.010;19.972;2023-02-19T09:46:37;98195.13;;;13.22;64.64
35655;BME280;21773;50.010;19.972;2023-02-19T09:49:43;98183.44;;;13.17;64.75
35655;BME280;21773;50.010;19.972;2023-02-19T09:52:53;98201.91;;;13.25;64.66
35655;BME280;21773;50.010;19.972;2023-02-19T09:55:59;98195.66;;;13.19;64.35
35655;BME280;21773;50.010;19.972;2023-02-19T09:59:04;98205.59;;;13.14;64.63
35655;BME280;21773;50.010;19.972;2023-02-19T10:02:14;98210.53;;;13.22;63.20
35655;BME280;21773;50.010;19.972;2023-02-19T10:05:18;98213.81;;;13.24;59.72
35655;BME280;21773;50.010;19.972;2023-02-19T10:08:23;98214.53;;;13.14;59.48
35655;BME280;21773;50.010;19.972;2023-02-19T10:11:26;98211.13;;;13.02;59.46
35655;BME280;21773;50.010;19.972;2023-02-19T10:14:36;98211.94;;;13.02;60.24
35655;BME280;21773;50.010;19.972;2023-02-19T10:17:43;98226.28;;;13.03;60.29
35655;BME280;21773;50.010;19.972;2023-02-19T10:20:46;98218.16;;;13.03;60.19
35655;BME280;21773;50.010;19.972;2023-02-19T10:23:55;98223.47;;;12.93;60.00
35655;BME280;21773;50.010;19.972;2023-02-19T10:27:01;98228.03;;;12.92;60.19
35655;BME280;21773;50.010;19.972;2023-02-19T10:30:06;98226.75;;;12.95;60.40
35655;BME280;21773;50.010;19.972;2023-02-19T10:33:18;98230.50;;;12.94;60.93
35655;BME280;21773;50.010;19.972;2023-02-19T10:36:25;98238.34;;;12.95;60.39
35655;BME280;21773;50.010;19.972;2023-02-19T10:39:38;98236.41;;;12.91;59.88
35655;BME280;21773;50.010;19.972;2023-02-19T10:42:45;98243.09;;;12.83;59.89
35655;BME280;21773;50.010;19.972;2023-02-19T10:45:49;98251.34;;;12.93;60.42
35655;BME280;21773;50.010;19.972;2023-02-19T10:48:57;98251.03;;;12.90;60.31
35655;BME280;21773;50.010;19.972;2023-02-19T10:52:12;98251.88;;;12.95;60.21
35655;BME280;21773;50.010;19.972;2023-02-19T10:55:25;98263.34;;;13.02;60.03
35655;BME280;21773;50.010;19.972;2023-02-19T10:58:30;98258.53;;;13.10;59.96
35655;BME280;21773;50.010;19.972;2023-02-19T11:01:36;98276.34;;;13.06;59.98
35655;BME280;21773;50.010;19.972;2023-02-19T11:05:02;98286.13;;;12.85;59.10
35655;BME280;21773;50.010;19.972;2023-02-19T11:08:20;98292.69;;;12.72;58.01
35655;BME280;21773;50.010;19.972;2023-02-19T11:11:27;98299.41;;;12.48;57.57
35655;BME280;21773;50.010;19.972;2023-02-19T11:14:33;98305.97;;;12.35;57.20
35655;BME280;21773;50.010;19.972;2023-02-19T11:17:37;98322.41;;;12.17;57.30
35655;BME280;21773;50.010;19.972;2023-02-19T11:20:48;98318.91;;;12.00;56.80
35655;BME280;21773;50.010;19.972;2023-02-19T11:23:55;98327.84;;;12.00;56.56
35655;BME280;21773;50.010;19.972;2023-02-19T11:26:59;98330.25;;;11.85;56.42
35655;BME280;21773;50.010;19.972;2023-02-19T11:30:31;98331.81;;;11.81;57.25
35655;BME280;21773;50.010;19.972;2023-02-19T11:33:42;98326.19;;;11.71;57.13
35655;BME280;21773;50.010;19.972;2023-02-19T11:37:07;98327.06;;;11.60;56.04
35655;BME280;21773;50.010;19.972;2023-02-19T11:40:11;98338.28;;;11.68;55.80
35655;BME280;21773;50.010;19.972;2023-02-19T11:43:36;98341.38;;;11.60;55.27
35655;BME280;21773;50.010;19.972;2023-02-19T11:46:50;98353.84;;;11.61;55.15
35655;BME280;21773;50.010;19.972;2023-02-19T11:50:04;98354.28;;;11.58;55.75
35655;BME280;21773;50.010;19.972;2023-02-19T11:53:20;98312.97;;;11.29;55.66
35655;BME280;21773;50.010;19.972;2023-02-19T11:56:31;98357.38;;;11.50;55.94
35655;BME280;21773;50.010;19.972;2023-02-19T11:59:41;98369.94;;;11.56;56.11
35655;BME280;21773;50.010;19.972;2023-02-19T12:02:58;98380.59;;;11.63;56.00
35655;BME280;21773;50.010;19.972;2023-02-19T12:06:16;98396.09;;;11.56;55.54
35655;BME280;21773;50.010;19.972;2023-02-19T12:09:36;98400.91;;;11.54;56.09
35655;BME280;21773;50.010;19.972;2023-02-19T12:12:51;98396.72;;;11.46;56.51
35655;BME280;21773;50.010;19.972;2023-02-19T12:16:07;98390.50;;;11.46;55.86
35655;BME280;21773;50.010;19.972;2023-02-19T12:19:22;98392.25;;;11.52;55.77
35655;BME280;21773;50.010;19.972;2023-02-19T12:22:31;98392.09;;;11.58;56.11
35655;BME280;21773;50.010;19.972;2023-02-19T12:25:46;98394.66;;;11.65;56.43
35655;BME280;21773;50.010;19.972;2023-02-19T12:29:18;98413.88;;;11.68;56.21
35655;BME280;21773;50.010;19.972;2023-02-19T12:32:53;98430.09;;;11.68;56.07
35655;BME280;21773;50.010;19.972;2023-02-19T12:36:09;98429.28;;;11.68;56.38
35655;BME280;21773;50.010;19.972;2023-02-19T12:39:23;98426.00;;;11.66;56.38
35655;BME280;21773;50.010;19.972;2023-02-19T12:42:42;98435.25;;;11.70;56.66
35655;BME280;21773;50.010;19.972;2023-02-19T12:45:54;98441.03;;;11.73;56.94
35655;BME280;21773;50.010;19.972;2023-02-19T12:49:05;98426.69;;;11.73;56.28
35655;BME280;21773;50.010;19.972;2023-02-19T12:52:18;98429.50;;;11.78;56.03
35655;BME280;21773;50.010;19.972;2023-02-19T12:55:26;98439.13;;;11.86;55.86
35655;BME280;21773;50.010;19.972;2023-02-19T12:58:38;98446.41;;;11.85;54.78
35655;BME280;21773;50.010;19.972;2023-02-19T13:01:47;98446.16;;;11.87;54.68
35655;BME280;21773;50.010;19.972;2023-02-19T13:04:59;98453.44;;;11.86;54.00
35655;BME280;21773;50.010;19.972;2023-02-19T13:08:10;98452.84;;;11.84;53.97
35655;BME280;21773;50.010;19.972;2023-02-19T13:11:17;98440.91;;;11.80;53.90
35655;BME280;21773;50.010;19.972;2023-02-19T13:14:27;98442.06;;;11.84;53.64
35655;BME280;21773;50.010;19.972;2023-02-19T13:17:36;98445.91;;;11.88;53.45
35655;BME280;21773;50.010;19.972;2023-02-19T13:20:42;98451.56;;;11.87;53.55
35655;BME280;21773;50.010;19.972;2023-02-19T13:23:47;98461.22;;;11.71;53.31
35655;BME280;21773;50.010;19.972;2023-02-19T13:27:15;98445.41;;;11.51;53.57
35655;BME280;21773;50.010;19.972;2023-02-19T13:30:42;98470.97;;;11.60;52.66
35655;BME280;21773;50.010;19.972;2023-02-19T13:34:01;98461.72;;;11.45;nan
35655;BME280;21773;50.010;19.972;2023-02-19T13:37:09;98474.63;;;11.54;52.92
35655;BME280;21773;50.010;19.972;2023-02-19T13:40:21;98478.31;;;11.37;52.73
35655;BME280;21773;50.010;19.972;2023-02-19T13:43:30;98477.81;;;11.40;52.90
35655;BME280;21773;50.010;19.972;2023-02-19T13:46:39;98492.84;;;11.36;52.74
35655;BME280;21773;50.010;19.972;2023-02-19T13:49:47;98493.34;;;11.33;53.18
35655;BME280;21773;50.010;19.972;2023-02-19T13:52:54;98508.47;;;11.34;52.63
35655;BME280;21773;50.010;19.972;2023-02-19T13:55:58;98513.28;;;11.32;51.88
35655;BME280;21773;50.010;19.972;2023-02-19T13:59:20;98516.91;;;11.37;51.52
35655;BME280;21773;50.010;19.972;2023-02-19T14:02:31;98518.44;;;11.21;50.53
35655;BME280;21773;50.010;19.972;2023-02-19T14:06:07;98537.88;;;11.00;50.00
35655;BME280;21773;50.010;19.972;2023-02-19T14:12:44;98546.19;;;10.87;50.83
35655;BME280;21773;50.010;19.972;2023-02-19T14:15:48;98560.84;;;10.79;50.68
35655;BME280;21773;50.010;19.972;2023-02-19T14:18:53;98567.09;;;10.62;50.45
35655;BME280;21773;50.010;19.972;2023-02-19T14:21:57;98578.72;;;10.62;50.39
35655;BME280;21773;50.010;19.972;2023-02-19T14:25:06;98552.03;;;10.42;50.99
35655;BME280;21773;50.010;19.972;2023-02-19T14:28:28;98581.13;;;10.52;50.88
35655;BME280;21773;50.010;19.972;2023-02-19T14:31:35;98585.47;;;10.53;51.51
35655;BME280;21773;50.010;19.972;2023-02-19T14:34:43;98591.84;;;10.59;52.16
35655;BME280;21773;50.010;19.972;2023-02-19T14:37:48;98604.03;;;10.61;51.55
35655;BME280;21773;50.010;19.972;2023-02-19T14:40:53;98606.97;;;10.60;51.78
35655;BME280;21773;50.010;19.972;2023-02-19T14:43:57;98617.69;;;10.48;51.54
35655;BME280;21773;50.010;19.972;2023-02-19T14:47:04;98631.16;;;10.48;51.57
35655;BME280;21773;50.010;19.972;2023-02-19T14:50:12;98646.19;;;10.56;51.51
35655;BME280;21773;50.010;19.972;2023-02-19T14:53:19;98650.25;;;10.65;50.96
35655;BME280;21773;50.010;19.972;2023-02-19T14:56:26;98650.25;;;10.65;50.54
35655;BME280;21773;50.010;19.972;2023-02-19T14:59:32;98660.56;;;10.68;50.54
35655;BME280;21773;50.010;19.972;2023-02-19T15:02:41;98664.78;;;10.75;50.01
35655;BME280;21773;50.010;19.972;2023-02-19T15:05:46;98661.75;;;10.72;49.63
35655;BME280;21773;50.010;19.972;2023-02-19T15:08:58;98667.59;;;10.69;49.76
35655;BME280;21773;50.010;19.972;2023-02-19T15:12:04;98674.88;;;10.68;50.03
35655;BME280;21773;50.010;19.972;2023-02-19T15:15:15;98687.84;;;10.60;50.13
35655;BME280;21773;50.010;19.972;2023-02-19T15:18:22;98690.53;;;10.41;50.35
35655;BME280;21773;50.010;19.972;2023-02-19T15:21:30;98685.53;;;10.45;50.82
35655;BME280;21773;50.010;19.972;2023-02-19T15:24:34;98697.50;;;10.31;50.77
35655;BME280;21773;50.010;19.972;2023-02-19T15:27:38;98704.63;;;10.25;51.12
35655;BME280;21773;50.010;19.972;2023-02-19T15:30:41;98711.50;;;10.21;51.23
35655;BME280;21773;50.010;19.972;2023-02-19T15:33:49;98710.34;;;10.11;51.57
35655;BME280;21773;50.010;19.972;2023-02-19T15:36:56;98713.31;;;10.02;51.53
35655;BME280;21773;50.010;19.972;2023-02-19T15:40:03;98715.16;;;10.02;51.32
35655;BME280;21773;50.010;19.972;2023-02-19T15:43:20;98721.84;;;9.99;51.46
35655;BME280;21773;50.010;19.972;2023-02-19T15:46:25;98720.41;;;9.97;51.26
35655;BME280;21773;50.010;19.972;2023-02-19T15:49:34;98683.88;;;9.58;51.00
35655;BME280;21773;50.010;19.972;2023-02-19T15:52:45;98733.00;;;9.78;51.53
35655;BME280;21773;50.010;19.972;2023-02-19T15:55:58;98745.78;;;9.83;51.28
35655;BME280;21773;50.010;19.972;2023-02-19T15:59:05;98731.47;;;9.64;50.94
35655;BME280;21773;50.010;19.972;2023-02-19T16:02:14;98738.28;;;9.67;50.78
35655;BME280;21773;50.010;19.972;2023-02-19T16:05:24;98752.91;;;9.77;51.30
35655;BME280;21773;50.010;19.972;2023-02-19T16:08:31;98756.69;;;9.70;51.19
35655;BME280;21773;50.010;19.972;2023-02-19T16:11:36;98767.06;;;9.66;51.20
35655;BME280;21773;50.010;19.972;2023-02-19T16:14:40;98754.47;;;9.60;51.14
35655;BME280;21773;50.010;19.972;2023-02-19T16:17:44;98782.94;;;9.74;51.21
35655;BME280;21773;50.010;19.972;2023-02-19T16:20:47;98793.19;;;9.59;50.46
35655;BME280;21773;50.010;19.972;2023-02-19T16:23:59;98789.97;;;9.44;50.58
35655;BME280;21773;50.010;19.972;2023-02-19T16:27:04;98809.97;;;9.61;50.81
35655;BME280;21773;50.010;19.972;2023-02-19T16:33:41;98827.31;;;9.65;50.80
35655;BME280;21773;50.010;19.972;2023-02-19T16:36:47;98840.34;;;9.68;51.29